sensor_id;sensor_type;location;lat;lon;timestamp;P1;durP1;ratioP1;P2;durP2;ratioP2
9597;SDS011;4837;50.890;4.724;2023-02-28T00:00:45;11.07;;;8.27;;
9597;SDS011;4837;50.890;4.724;2023-02-28T00:03:12;15.53;;;9.50;;
9597;SDS011;4837;50.890;4.724;2023-02-28T00:05:38;12.60;;;8.97;;
9597;SDS011;4837;50.890;4.724;2023-02-28T00:08:04;11.47;;;7.27;;
9597;SDS011;4837;50.890;4.724;2023-02-28T00:10:31;7.20;;;6.33;;
9597;SDS011;4837;50.890;4.724;2023-02-28T00:13:04;9.00;;;6.83;;
9597;SDS011;4837;50.890;4.724;2023-02-28T00:15:31;8.83;;;6.77;;
9597;SDS011;4837;50.890;4.724;2023-02-28T00:17:57;10.27;;;6.33;;
9597;SDS011;4837;50.890;4.724;2023-02-28T00:20:23;9.07;;;6.27;;
9597;SDS011;4837;50.890;4.724;2023-02-28T00:22:51;9.07;;;6.23;;
9597;SDS011;4837;50.890;4.724;2023-02-28T00:25:18;10.20;;;6.30;;
9597;SDS011;4837;50.890;4.724;2023-02-28T00:27:45;8.37;;;6.00;;
9597;SDS011;4837;50.890;4.724;2023-02-28T00:30:12;10.07;;;6.17;;
9597;SDS011;4837;50.890;4.724;2023-02-28T00:32:39;8.10;;;6.13;;
9597;SDS011;4837;50.890;4.724;2023-02-28T00:35:05;8.40;;;6.07;;
9597;SDS011;4837;50.890;4.724;2023-02-28T00:37:32;8.70;;;6.57;;
9597;SDS011;4837;50.890;4.724;2023-02-28T00:39:58;11.13;;;6.40;;
9597;SDS011;4837;50.890;4.724;2023-02-28T00:42:24;8.97;;;6.27;;
9597;SDS011;4837;50.890;4.724;2023-02-28T00:44:50;10.10;;;6.67;;
9597;SDS011;4837;50.890;4.724;2023-02-28T00:47:17;10.50;;;6.80;;
9597;SDS011;4837;50.890;4.724;2023-02-28T00:49:43;8.90;;;6.30;;
9597;SDS011;4837;50.890;4.724;2023-02-28T00:52:09;9.27;;;6.50;;
9597;SDS011;4837;50.890;4.724;2023-02-28T00:54:35;10.77;;;7.17;;
9597;SDS011;4837;50.890;4.724;2023-02-28T00:57:01;10.00;;;6.53;;
9597;SDS011;4837;50.890;4.724;2023-02-28T00:59:27;9.27;;;6.33;;
9597;SDS011;4837;50.890;4.724;2023-02-28T01:01:53;8.90;;;6.10;;
9597;SDS011;4837;50.890;4.724;2023-02-28T01:04:20;8.13;;;6.30;;
9597;SDS011;4837;50.890;4.724;2023-02-28T01:06:46;7.93;;;5.73;;
9597;SDS011;4837;50.890;4.724;2023-02-28T01:09:12;9.50;;;6.63;;
9597;SDS011;4837;50.890;4.724;2023-02-28T01:11:38;7.87;;;6.47;;
9597;SDS011;4837;50.890;4.724;2023-02-28T01:14:06;8.50;;;6.13;;
9597;SDS011;4837;50.890;4.724;2023-02-28T01:16:32;8.97;;;6.27;;
9597;SDS011;4837;50.890;4.724;2023-02-28T01:18:58;10.60;;;6.27;;
9597;SDS011;4837;50.890;4.724;2023-02-28T01:21:25;10.40;;;6.60;;
9597;SDS011;4837;50.890;4.724;2023-02-28T01:23:51;9.10;;;6.57;;
9597;SDS011;4837;50.890;4.724;2023-02-28T01:26:18;8.07;;;6.23;;
9597;SDS011;4837;50.890;4.724;2023-02-28T01:28:44;8.50;;;5.97;;
9597;SDS011;4837;50.890;4.724;2023-02-28T01:31:11;7.63;;;6.03;;
9597;SDS011;4837;50.890;4.724;2023-02-28T01:33:37;10.53;;;6.33;;
9597;SDS011;4837;50.890;4.724;2023-02-28T01:36:05;8.50;;;6.10;;
9597;SDS011;4837;50.890;4.724;2023-02-28T01:38:31;7.23;;;6.20;;
9597;SDS011;4837;50.890;4.724;2023-02-28T01:40:58;9.67;;;6.93;;
9597;SDS011;4837;50.890;4.724;2023-02-28T01:43:25;8.53;;;6.47;;
9597;SDS011;4837;50.890;4.724;2023-02-28T01:45:52;7.20;;;6.20;;
9597;SDS011;4837;50.890;4.724;2023-02-28T01:48:19;7.60;;;6.20;;
9597;SDS011;4837;50.890;4.724;2023-02-28T01:50:47;9.80;;;6.27;;
9597;SDS011;4837;50.890;4.724;2023-02-28T01:53:15;7.20;;;6.27;;
9597;SDS011;4837;50.890;4.724;2023-02-28T01:55:44;10.07;;;6.63;;
9597;SDS011;4837;50.890;4.724;2023-02-28T01:58:12;11.03;;;6.43;;
9597;SDS011;4837;50.890;4.724;2023-02-28T02:00:38;10.43;;;7.13;;
9597;SDS011;4837;50.890;4.724;2023-02-28T02:03:11;9.37;;;5.87;;
9597;SDS011;4837;50.890;4.724;2023-02-28T02:05:38;8.90;;;6.33;;
9597;SDS011;4837;50.890;4.724;2023-02-28T02:08:05;10.47;;;6.20;;
9597;SDS011;4837;50.890;4.724;2023-02-28T02:10:33;9.67;;;7.13;;
9597;SDS011;4837;50.890;4.724;2023-02-28T02:15:34;10.50;;;7.37;;
9597;SDS011;4837;50.890;4.724;2023-02-28T02:18:05;8.17;;;6.90;;
9597;SDS011;4837;50.890;4.724;2023-02-28T02:37:24;8.83;;;7.13;;
9597;SDS011;4837;50.890;4.724;2023-02-28T02:42:44;8.13;;;6.80;;
9597;SDS011;4837;50.890;4.724;2023-02-28T02:45:19;9.57;;;6.57;;
9597;SDS011;4837;50.890;4.724;2023-02-28T02:47:46;9.73;;;7.20;;
9597;SDS011;4837;50.890;4.724;2023-02-28T02:50:15;9.90;;;7.13;;
9597;SDS011;4837;50.890;4.724;2023-02-28T02:52:46;8.27;;;6.93;;
9597;SDS011;4837;50.890;4.724;2023-02-28T02:55:13;8.17;;;6.80;;
9597;SDS011;4837;50.890;4.724;2023-02-28T03:00:10;9.77;;;7.00;;
9597;SDS011;4837;50.890;4.724;2023-02-28T03:02:36;9.07;;;6.90;;
9597;SDS011;4837;50.890;4.724;2023-02-28T03:07:53;10.83;;;7.97;;
9597;SDS011;4837;50.890;4.724;2023-02-28T03:10:42;10.30;;;7.57;;
9597;SDS011;4837;50.890;4.724;2023-02-28T03:23:45;10.30;;;7.20;;
9597;SDS011;4837;50.890;4.724;2023-02-28T03:26:17;11.20;;;7.90;;
9597;SDS011;4837;50.890;4.724;2023-02-28T03:29:10;11.83;;;7.67;;
9597;SDS011;4837;50.890;4.724;2023-02-28T03:31:35;10.23;;;8.03;;
9597;SDS011;4837;50.890;4.724;2023-02-28T03:34:10;8.97;;;7.97;;
9597;SDS011;4837;50.890;4.724;2023-02-28T03:36:39;15.27;;;8.07;;
9597;SDS011;4837;50.890;4.724;2023-02-28T03:39:14;11.50;;;8.30;;
9597;SDS011;4837;50.890;4.724;2023-02-28T03:41:42;9.37;;;7.80;;
9597;SDS011;4837;50.890;4.724;2023-02-28T03:44:55;10.50;;;8.33;;
9597;SDS011;4837;50.890;4.724;2023-02-28T03:47:03;13.30;;;8.80;;
9597;SDS011;4837;50.890;4.724;2023-02-28T03:49:32;9.93;;;7.40;;
9597;SDS011;4837;50.890;4.724;2023-02-28T03:52:00;10.07;;;7.83;;
9597;SDS011;4837;50.890;4.724;2023-02-28T03:54:30;11.07;;;8.80;;
9597;SDS011;4837;50.890;4.724;2023-02-28T03:57:03;12.37;;;8.10;;
9597;SDS011;4837;50.890;4.724;2023-02-28T03:59:40;11.80;;;8.77;;
9597;SDS011;4837;50.890;4.724;2023-02-28T04:02:08;12.53;;;8.80;;
9597;SDS011;4837;50.890;4.724;2023-02-28T04:04:34;12.53;;;8.37;;
9597;SDS011;4837;50.890;4.724;2023-02-28T04:07:05;12.33;;;8.67;;
9597;SDS011;4837;50.890;4.724;2023-02-28T04:09:31;16.80;;;9.37;;
9597;SDS011;4837;50.890;4.724;2023-02-28T04:11:58;12.40;;;9.00;;
9597;SDS011;4837;50.890;4.724;2023-02-28T04:14:24;11.63;;;9.57;;
9597;SDS011;4837;50.890;4.724;2023-02-28T04:16:50;12.23;;;8.20;;
9597;SDS011;4837;50.890;4.724;2023-02-28T04:19:17;11.67;;;8.77;;
9597;SDS011;4837;50.890;4.724;2023-02-28T04:21:44;13.20;;;8.50;;
9597;SDS011;4837;50.890;4.724;2023-02-28T04:24:15;11.57;;;8.47;;
9597;SDS011;4837;50.890;4.724;2023-02-28T04:26:42;12.57;;;8.70;;
9597;SDS011;4837;50.890;4.724;2023-02-28T04:29:12;11.30;;;8.83;;
9597;SDS011;4837;50.890;4.724;2023-02-28T04:31:38;12.43;;;8.43;;
9597;SDS011;4837;50.890;4.724;2023-02-28T04:34:04;11.73;;;9.23;;
9597;SDS011;4837;50.890;4.724;2023-02-28T04:36:31;15.30;;;9.37;;
9597;SDS011;4837;50.890;4.724;2023-02-28T04:38:57;10.17;;;8.63;;
9597;SDS011;4837;50.890;4.724;2023-02-28T04:41:23;12.50;;;8.67;;
9597;SDS011;4837;50.890;4.724;2023-02-28T04:43:51;12.60;;;8.70;;
9597;SDS011;4837;50.890;4.724;2023-02-28T04:46:17;10.47;;;8.80;;
9597;SDS011;4837;50.890;4.724;2023-02-28T04:48:44;14.30;;;9.97;;
9597;SDS011;4837;50.890;4.724;2023-02-28T04:51:11;12.67;;;9.60;;
9597;SDS011;4837;50.890;4.724;2023-02-28T04:53:38;12.27;;;9.30;;
9597;SDS011;4837;50.890;4.724;2023-02-28T04:56:04;13.20;;;9.53;;
9597;SDS011;4837;50.890;4.724;2023-02-28T04:58:31;15.47;;;10.00;;
9597;SDS011;4837;50.890;4.724;2023-02-28T05:01:04;13.87;;;10.00;;
9597;SDS011;4837;50.890;4.724;2023-02-28T05:03:40;15.23;;;10.03;;
9597;SDS011;4837;50.890;4.724;2023-02-28T05:06:10;10.87;;;9.47;;
9597;SDS011;4837;50.890;4.724;2023-02-28T05:08:37;16.60;;;10.70;;
9597;SDS011;4837;50.890;4.724;2023-02-28T05:11:04;13.83;;;10.50;;
9597;SDS011;4837;50.890;4.724;2023-02-28T05:13:31;11.73;;;10.07;;
9597;SDS011;4837;50.890;4.724;2023-02-28T05:15:57;12.53;;;9.40;;
9597;SDS011;4837;50.890;4.724;2023-02-28T05:18:23;16.50;;;9.70;;
9597;SDS011;4837;50.890;4.724;2023-02-28T05:20:50;14.10;;;9.23;;
9597;SDS011;4837;50.890;4.724;2023-02-28T05:23:16;16.93;;;10.40;;
9597;SDS011;4837;50.890;4.724;2023-02-28T05:25:43;11.43;;;9.20;;
9597;SDS011;4837;50.890;4.724;2023-02-28T05:28:09;16.87;;;10.33;;
9597;SDS011;4837;50.890;4.724;2023-02-28T05:30:35;12.37;;;10.20;;
9597;SDS011;4837;50.890;4.724;2023-02-28T05:33:01;13.53;;;9.43;;
9597;SDS011;4837;50.890;4.724;2023-02-28T05:35:27;13.93;;;10.33;;
9597;SDS011;4837;50.890;4.724;2023-02-28T05:37:53;11.57;;;9.53;;
9597;SDS011;4837;50.890;4.724;2023-02-28T05:40:20;17.50;;;10.97;;
9597;SDS011;4837;50.890;4.724;2023-02-28T05:42:46;14.43;;;10.27;;
9597;SDS011;4837;50.890;4.724;2023-02-28T05:45:12;18.07;;;11.63;;
9597;SDS011;4837;50.890;4.724;2023-02-28T05:47:38;15.93;;;10.63;;
9597;SDS011;4837;50.890;4.724;2023-02-28T05:50:05;17.30;;;10.80;;
9597;SDS011;4837;50.890;4.724;2023-02-28T05:52:31;16.03;;;10.67;;
9597;SDS011;4837;50.890;4.724;2023-02-28T05:54:57;21.37;;;11.07;;
9597;SDS011;4837;50.890;4.724;2023-02-28T05:57:23;14.20;;;10.13;;
9597;SDS011;4837;50.890;4.724;2023-02-28T05:59:49;12.67;;;10.07;;
9597;SDS011;4837;50.890;4.724;2023-02-28T06:02:16;15.97;;;10.40;;
9597;SDS011;4837;50.890;4.724;2023-02-28T06:04:43;14.37;;;10.23;;
9597;SDS011;4837;50.890;4.724;2023-02-28T06:07:09;19.13;;;11.30;;
9597;SDS011;4837;50.890;4.724;2023-02-28T06:09:35;13.73;;;9.73;;
9597;SDS011;4837;50.890;4.724;2023-02-28T06:12:03;14.47;;;11.20;;
9597;SDS011;4837;50.890;4.724;2023-02-28T06:14:30;14.07;;;10.53;;
9597;SDS011;4837;50.890;4.724;2023-02-28T06:16:57;15.93;;;10.53;;
9597;SDS011;4837;50.890;4.724;2023-02-28T06:19:23;14.53;;;10.17;;
9597;SDS011;4837;50.890;4.724;2023-02-28T06:21:54;17.57;;;11.13;;
9597;SDS011;4837;50.890;4.724;2023-02-28T06:24:21;41.90;;;12.40;;
9597;SDS011;4837;50.890;4.724;2023-02-28T06:26:47;26.07;;;11.70;;
9597;SDS011;4837;50.890;4.724;2023-02-28T06:29:14;16.00;;;10.70;;
9597;SDS011;4837;50.890;4.724;2023-02-28T06:31:46;14.87;;;10.57;;
9597;SDS011;4837;50.890;4.724;2023-02-28T06:34:13;15.03;;;10.97;;
9597;SDS011;4837;50.890;4.724;2023-02-28T06:36:39;17.57;;;11.27;;
9597;SDS011;4837;50.890;4.724;2023-02-28T06:39:06;14.27;;;10.40;;
9597;SDS011;4837;50.890;4.724;2023-02-28T06:41:33;17.40;;;10.67;;
9597;SDS011;4837;50.890;4.724;2023-02-28T06:44:12;15.90;;;11.30;;
9597;SDS011;4837;50.890;4.724;2023-02-28T06:46:39;15.57;;;11.50;;
9597;SDS011;4837;50.890;4.724;2023-02-28T06:49:06;15.03;;;11.57;;
9597;SDS011;4837;50.890;4.724;2023-02-28T06:51:34;20.83;;;12.33;;
9597;SDS011;4837;50.890;4.724;2023-02-28T06:54:00;28.03;;;13.27;;
9597;SDS011;4837;50.890;4.724;2023-02-28T06:56:26;17.47;;;10.83;;
9597;SDS011;4837;50.890;4.724;2023-02-28T06:58:53;18.27;;;10.67;;
9597;SDS011;4837;50.890;4.724;2023-02-28T07:01:24;18.33;;;11.17;;
9597;SDS011;4837;50.890;4.724;2023-02-28T07:03:50;17.07;;;11.00;;
9597;SDS011;4837;50.890;4.724;2023-02-28T07:06:20;15.93;;;10.60;;
9597;SDS011;4837;50.890;4.724;2023-02-28T07:08:50;13.80;;;11.10;;
9597;SDS011;4837;50.890;4.724;2023-02-28T07:11:20;12.53;;;10.57;;
9597;SDS011;4837;50.890;4.724;2023-02-28T07:13:49;16.63;;;10.67;;
9597;SDS011;4837;50.890;4.724;2023-02-28T07:16:15;13.93;;;10.17;;
9597;SDS011;4837;50.890;4.724;2023-02-28T07:18:42;12.53;;;10.07;;
9597;SDS011;4837;50.890;4.724;2023-02-28T07:21:08;13.80;;;9.77;;
9597;SDS011;4837;50.890;4.724;2023-02-28T07:23:35;16.47;;;10.20;;
9597;SDS011;4837;50.890;4.724;2023-02-28T07:26:03;14.73;;;10.23;;
9597;SDS011;4837;50.890;4.724;2023-02-28T07:28:29;12.13;;;9.80;;
9597;SDS011;4837;50.890;4.724;2023-02-28T07:30:55;13.43;;;10.40;;
9597;SDS011;4837;50.890;4.724;2023-02-28T07:33:21;16.60;;;10.40;;
9597;SDS011;4837;50.890;4.724;2023-02-28T07:35:49;14.77;;;9.47;;
9597;SDS011;4837;50.890;4.724;2023-02-28T07:38:15;15.53;;;9.93;;
9597;SDS011;4837;50.890;4.724;2023-02-28T07:40:41;15.87;;;9.50;;
9597;SDS011;4837;50.890;4.724;2023-02-28T07:43:07;15.07;;;9.23;;
9597;SDS011;4837;50.890;4.724;2023-02-28T07:45:33;14.50;;;9.50;;
9597;SDS011;4837;50.890;4.724;2023-02-28T07:48:00;14.40;;;9.47;;
9597;SDS011;4837;50.890;4.724;2023-02-28T07:50:26;11.70;;;9.07;;
9597;SDS011;4837;50.890;4.724;2023-02-28T07:52:56;12.13;;;8.87;;
9597;SDS011;4837;50.890;4.724;2023-02-28T07:55:22;13.33;;;9.17;;
9597;SDS011;4837;50.890;4.724;2023-02-28T07:57:48;14.13;;;8.43;;
9597;SDS011;4837;50.890;4.724;2023-02-28T08:00:14;10.30;;;7.63;;
9597;SDS011;4837;50.890;4.724;2023-02-28T08:02:40;11.00;;;8.37;;
9597;SDS011;4837;50.890;4.724;2023-02-28T08:05:07;8.93;;;7.33;;
9597;SDS011;4837;50.890;4.724;2023-02-28T08:07:33;9.83;;;7.43;;
9597;SDS011;4837;50.890;4.724;2023-02-28T08:09:59;12.63;;;7.83;;
9597;SDS011;4837;50.890;4.724;2023-02-28T08:12:26;10.67;;;7.27;;
9597;SDS011;4837;50.890;4.724;2023-02-28T08:14:52;8.03;;;6.53;;
9597;SDS011;4837;50.890;4.724;2023-02-28T08:17:18;9.23;;;6.83;;
9597;SDS011;4837;50.890;4.724;2023-02-28T08:19:45;10.50;;;6.83;;
9597;SDS011;4837;50.890;4.724;2023-02-28T08:22:11;9.47;;;7.27;;
9597;SDS011;4837;50.890;4.724;2023-02-28T08:24:38;8.77;;;6.47;;
9597;SDS011;4837;50.890;4.724;2023-02-28T08:27:04;9.10;;;6.70;;
9597;SDS011;4837;50.890;4.724;2023-02-28T08:29:30;11.17;;;6.10;;
9597;SDS011;4837;50.890;4.724;2023-02-28T08:31:56;7.33;;;5.90;;
9597;SDS011;4837;50.890;4.724;2023-02-28T08:34:23;7.43;;;5.87;;
9597;SDS011;4837;50.890;4.724;2023-02-28T08:36:50;7.67;;;5.63;;
9597;SDS011;4837;50.890;4.724;2023-02-28T08:39:16;7.27;;;5.77;;
9597;SDS011;4837;50.890;4.724;2023-02-28T08:41:42;7.27;;;5.60;;
9597;SDS011;4837;50.890;4.724;2023-02-28T08:44:09;8.40;;;6.10;;
9597;SDS011;4837;50.890;4.724;2023-02-28T08:46:35;9.13;;;5.70;;
9597;SDS011;4837;50.890;4.724;2023-02-28T08:49:01;7.67;;;5.63;;
9597;SDS011;4837;50.890;4.724;2023-02-28T08:51:27;7.43;;;5.17;;
9597;SDS011;4837;50.890;4.724;2023-02-28T08:53:54;6.50;;;5.20;;
9597;SDS011;4837;50.890;4.724;2023-02-28T08:56:21;7.60;;;5.27;;
9597;SDS011;4837;50.890;4.724;2023-02-28T08:58:48;7.67;;;5.77;;
9597;SDS011;4837;50.890;4.724;2023-02-28T09:01:18;6.30;;;4.93;;
9597;SDS011;4837;50.890;4.724;2023-02-28T09:03:44;8.73;;;5.37;;
9597;SDS011;4837;50.890;4.724;2023-02-28T09:06:11;6.67;;;5.63;;
9597;SDS011;4837;50.890;4.724;2023-02-28T09:08:37;6.43;;;4.90;;
9597;SDS011;4837;50.890;4.724;2023-02-28T09:11:04;7.13;;;5.00;;
9597;SDS011;4837;50.890;4.724;2023-02-28T09:13:30;8.00;;;4.53;;
9597;SDS011;4837;50.890;4.724;2023-02-28T09:15:58;7.60;;;5.47;;
9597;SDS011;4837;50.890;4.724;2023-02-28T09:18:24;7.43;;;5.00;;
9597;SDS011;4837;50.890;4.724;2023-02-28T09:20:51;8.13;;;5.20;;
9597;SDS011;4837;50.890;4.724;2023-02-28T09:23:17;6.37;;;4.73;;
9597;SDS011;4837;50.890;4.724;2023-02-28T09:25:53;5.13;;;3.67;;
9597;SDS011;4837;50.890;4.724;2023-02-28T09:28:20;8.00;;;3.85;;
9597;SDS011;4837;50.890;4.724;2023-02-28T09:30:50;6.20;;;3.67;;
9597;SDS011;4837;50.890;4.724;2023-02-28T09:33:17;4.00;;;3.17;;
9597;SDS011;4837;50.890;4.724;2023-02-28T09:35:46;3.88;;;3.40;;
9597;SDS011;4837;50.890;4.724;2023-02-28T09:38:12;4.38;;;3.13;;
9597;SDS011;4837;50.890;4.724;2023-02-28T09:40:40;3.50;;;3.13;;
9597;SDS011;4837;50.890;4.724;2023-02-28T09:43:11;3.67;;;2.90;;
9597;SDS011;4837;50.890;4.724;2023-02-28T09:45:40;3.38;;;2.83;;
9597;SDS011;4837;50.890;4.724;2023-02-28T09:48:11;3.05;;;2.75;;
9597;SDS011;4837;50.890;4.724;2023-02-28T09:50:38;3.38;;;2.75;;
9597;SDS011;4837;50.890;4.724;2023-02-28T09:53:23;3.53;;;2.75;;
9597;SDS011;4837;50.890;4.724;2023-02-28T09:55:57;3.88;;;2.50;;
9597;SDS011;4837;50.890;4.724;2023-02-28T10:01:05;2.72;;;2.40;;
9597;SDS011;4837;50.890;4.724;2023-02-28T10:03:38;2.92;;;2.58;;
9597;SDS011;4837;50.890;4.724;2023-02-28T10:06:14;4.00;;;3.05;;
9597;SDS011;4837;50.890;4.724;2023-02-28T10:08:45;3.92;;;2.13;;
9597;SDS011;4837;50.890;4.724;2023-02-28T10:11:16;2.92;;;2.30;;
9597;SDS011;4837;50.890;4.724;2023-02-28T10:13:49;2.50;;;2.30;;
9597;SDS011;4837;50.890;4.724;2023-02-28T10:16:24;3.53;;;2.92;;
9597;SDS011;4837;50.890;4.724;2023-02-28T10:18:58;4.05;;;2.53;;
9597;SDS011;4837;50.890;4.724;2023-02-28T10:21:30;3.17;;;2.33;;
9597;SDS011;4837;50.890;4.724;2023-02-28T10:24:03;2.88;;;2.25;;
9597;SDS011;4837;50.890;4.724;2023-02-28T10:26:31;3.10;;;2.15;;
9597;SDS011;4837;50.890;4.724;2023-02-28T10:28:57;2.97;;;2.30;;
9597;SDS011;4837;50.890;4.724;2023-02-28T10:31:23;3.47;;;2.60;;
9597;SDS011;4837;50.890;4.724;2023-02-28T10:33:50;2.55;;;2.35;;
9597;SDS011;4837;50.890;4.724;2023-02-28T10:36:17;6.43;;;2.35;;
9597;SDS011;4837;50.890;4.724;2023-02-28T10:38:44;3.40;;;2.28;;
9597;SDS011;4837;50.890;4.724;2023-02-28T10:43:38;2.88;;;2.38;;
9597;SDS011;4837;50.890;4.724;2023-02-28T10:46:10;2.30;;;2.10;;
9597;SDS011;4837;50.890;4.724;2023-02-28T10:48:48;3.10;;;2.25;;
9597;SDS011;4837;50.890;4.724;2023-02-28T10:51:16;3.20;;;2.47;;
9597;SDS011;4837;50.890;4.724;2023-02-28T10:54:02;5.20;;;2.60;;
9597;SDS011;4837;50.890;4.724;2023-02-28T10:56:28;3.05;;;2.22;;
9597;SDS011;4837;50.890;4.724;2023-02-28T11:01:27;3.03;;;2.72;;
9597;SDS011;4837;50.890;4.724;2023-02-28T11:04:00;2.55;;;2.15;;
9597;SDS011;4837;50.890;4.724;2023-02-28T11:06:29;3.55;;;2.47;;
9597;SDS011;4837;50.890;4.724;2023-02-28T11:08:56;2.85;;;2.13;;
9597;SDS011;4837;50.890;4.724;2023-02-28T11:11:25;3.85;;;3.25;;
9597;SDS011;4837;50.890;4.724;2023-02-28T11:13:52;6.60;;;3.30;;
9597;SDS011;4837;50.890;4.724;2023-02-28T11:16:19;3.08;;;2.30;;
9597;SDS011;4837;50.890;4.724;2023-02-28T11:18:53;5.13;;;2.50;;
9597;SDS011;4837;50.890;4.724;2023-02-28T11:21:31;3.05;;;2.03;;
9597;SDS011;4837;50.890;4.724;2023-02-28T11:24:01;2.20;;;2.00;;
9597;SDS011;4837;50.890;4.724;2023-02-28T11:26:41;2.28;;;1.92;;
9597;SDS011;4837;50.890;4.724;2023-02-28T11:29:14;3.58;;;2.13;;
9597;SDS011;4837;50.890;4.724;2023-02-28T11:31:42;3.25;;;2.28;;
9597;SDS011;4837;50.890;4.724;2023-02-28T11:34:22;3.00;;;2.40;;
9597;SDS011;4837;50.890;4.724;2023-02-28T11:36:49;2.97;;;2.53;;
9597;SDS011;4837;50.890;4.724;2023-02-28T11:39:16;2.55;;;2.00;;
9597;SDS011;4837;50.890;4.724;2023-02-28T11:49:51;5.35;;;2.53;;
9597;SDS011;4837;50.890;4.724;2023-02-28T12:05:38;3.45;;;2.08;;
9597;SDS011;4837;50.890;4.724;2023-02-28T12:10:50;2.33;;;2.13;;
9597;SDS011;4837;50.890;4.724;2023-02-28T12:13:21;2.53;;;2.30;;
9597;SDS011;4837;50.890;4.724;2023-02-28T12:28:47;2.92;;;2.53;;
9597;SDS011;4837;50.890;4.724;2023-02-28T12:31:20;2.80;;;2.40;;
9597;SDS011;4837;50.890;4.724;2023-02-28T12:33:48;3.15;;;2.78;;
9597;SDS011;4837;50.890;4.724;2023-02-28T12:36:17;5.07;;;2.40;;
9597;SDS011;4837;50.890;4.724;2023-02-28T12:38:53;2.65;;;2.42;;
9597;SDS011;4837;50.890;4.724;2023-02-28T12:41:44;3.75;;;2.60;;
9597;SDS011;4837;50.890;4.724;2023-02-28T12:44:16;4.38;;;2.25;;
9597;SDS011;4837;50.890;4.724;2023-02-28T12:46:48;3.10;;;2.28;;
9597;SDS011;4837;50.890;4.724;2023-02-28T12:49:16;3.63;;;2.15;;
9597;SDS011;4837;50.890;4.724;2023-02-28T12:51:44;3.05;;;2.78;;
9597;SDS011;4837;50.890;4.724;2023-02-28T13:00:04;2.73;;;2.43;;
9597;SDS011;4837;50.890;4.724;2023-02-28T13:05:02;3.80;;;2.90;;
9597;SDS011;4837;50.890;4.724;2023-02-28T13:10:09;2.55;;;2.33;;
9597;SDS011;4837;50.890;4.724;2023-02-28T13:12:36;4.97;;;2.33;;
9597;SDS011;4837;50.890;4.724;2023-02-28T13:15:30;2.53;;;2.33;;
9597;SDS011;4837;50.890;4.724;2023-02-28T13:18:00;5.13;;;2.90;;
9597;SDS011;4837;50.890;4.724;2023-02-28T13:20:31;3.95;;;2.60;;
9597;SDS011;4837;50.890;4.724;2023-02-28T13:22:59;2.50;;;2.30;;
9597;SDS011;4837;50.890;4.724;2023-02-28T13:27:59;6.25;;;2.40;;
9597;SDS011;4837;50.890;4.724;2023-02-28T13:33:24;4.47;;;2.55;;
9597;SDS011;4837;50.890;4.724;2023-02-28T13:36:07;5.60;;;2.83;;
9597;SDS011;4837;50.890;4.724;2023-02-28T13:38:44;3.88;;;2.70;;
9597;SDS011;4837;50.890;4.724;2023-02-28T13:51:51;3.20;;;2.50;;
9597;SDS011;4837;50.890;4.724;2023-02-28T13:59:32;3.50;;;2.28;;
9597;SDS011;4837;50.890;4.724;2023-02-28T14:02:03;3.53;;;2.43;;
9597;SDS011;4837;50.890;4.724;2023-02-28T14:07:07;3.25;;;2.40;;
9597;SDS011;4837;50.890;4.724;2023-02-28T14:09:35;4.03;;;2.50;;
9597;SDS011;4837;50.890;4.724;2023-02-28T14:17:16;4.32;;;2.97;;
9597;SDS011;4837;50.890;4.724;2023-02-28T14:19:46;3.60;;;2.80;;
9597;SDS011;4837;50.890;4.724;2023-02-28T14:25:05;5.07;;;3.20;;
9597;SDS011;4837;50.890;4.724;2023-02-28T14:37:48;3.83;;;3.30;;
9597;SDS011;4837;50.890;4.724;2023-02-28T14:40:16;6.05;;;3.22;;
9597;SDS011;4837;50.890;4.724;2023-02-28T14:42:54;4.78;;;3.70;;
9597;SDS011;4837;50.890;4.724;2023-02-28T14:45:21;5.00;;;3.43;;
9597;SDS011;4837;50.890;4.724;2023-02-28T14:47:47;3.57;;;3.10;;
9597;SDS011;4837;50.890;4.724;2023-02-28T14:50:21;3.33;;;3.00;;
9597;SDS011;4837;50.890;4.724;2023-02-28T14:52:50;3.25;;;2.92;;
9597;SDS011;4837;50.890;4.724;2023-02-28T14:55:18;3.50;;;3.20;;
9597;SDS011;4837;50.890;4.724;2023-02-28T14:57:52;3.97;;;3.28;;
9597;SDS011;4837;50.890;4.724;2023-02-28T15:02:47;3.83;;;2.83;;
9597;SDS011;4837;50.890;4.724;2023-02-28T15:07:43;3.22;;;2.80;;
9597;SDS011;4837;50.890;4.724;2023-02-28T15:10:17;3.22;;;3.03;;
9597;SDS011;4837;50.890;4.724;2023-02-28T15:15:16;3.97;;;3.05;;
9597;SDS011;4837;50.890;4.724;2023-02-28T15:18:01;3.42;;;2.97;;
9597;SDS011;4837;50.890;4.724;2023-02-28T15:20:29;4.07;;;3.35;;
9597;SDS011;4837;50.890;4.724;2023-02-28T15:22:55;3.35;;;3.05;;
9597;SDS011;4837;50.890;4.724;2023-02-28T15:25:22;3.75;;;2.80;;
9597;SDS011;4837;50.890;4.724;2023-02-28T15:27:50;3.50;;;3.20;;
9597;SDS011;4837;50.890;4.724;2023-02-28T15:33:01;3.60;;;3.30;;
9597;SDS011;4837;50.890;4.724;2023-02-28T15:35:30;4.30;;;2.93;;
9597;SDS011;4837;50.890;4.724;2023-02-28T15:40:27;3.57;;;3.07;;
9597;SDS011;4837;50.890;4.724;2023-02-28T15:43:37;4.13;;;3.00;;
9597;SDS011;4837;50.890;4.724;2023-02-28T15:45:45;3.97;;;3.33;;
9597;SDS011;4837;50.890;4.724;2023-02-28T15:50:41;4.13;;;3.10;;
9597;SDS011;4837;50.890;4.724;2023-02-28T15:56:13;7.37;;;4.10;;
9597;SDS011;4837;50.890;4.724;2023-02-28T15:58:41;4.60;;;3.50;;
9597;SDS011;4837;50.890;4.724;2023-02-28T16:01:16;4.87;;;3.03;;
9597;SDS011;4837;50.890;4.724;2023-02-28T16:03:44;5.53;;;3.77;;
9597;SDS011;4837;50.890;4.724;2023-02-28T16:08:56;4.13;;;3.67;;
9597;SDS011;4837;50.890;4.724;2023-02-28T16:11:22;4.47;;;3.38;;
9597;SDS011;4837;50.890;4.724;2023-02-28T16:13:48;7.57;;;3.00;;
9597;SDS011;4837;50.890;4.724;2023-02-28T16:16:16;6.13;;;2.97;;
9597;SDS011;4837;50.890;4.724;2023-02-28T16:18:43;5.65;;;3.17;;
9597;SDS011;4837;50.890;4.724;2023-02-28T16:21:09;3.92;;;2.80;;
9597;SDS011;4837;50.890;4.724;2023-02-28T16:23:35;3.70;;;2.90;;
9597;SDS011;4837;50.890;4.724;2023-02-28T16:26:02;4.03;;;3.00;;
9597;SDS011;4837;50.890;4.724;2023-02-28T16:28:30;3.03;;;2.70;;
9597;SDS011;4837;50.890;4.724;2023-02-28T16:30:57;3.00;;;2.70;;
9597;SDS011;4837;50.890;4.724;2023-02-28T16:33:25;3.77;;;2.67;;
9597;SDS011;4837;50.890;4.724;2023-02-28T16:35:51;4.73;;;2.80;;
9597;SDS011;4837;50.890;4.724;2023-02-28T16:38:18;3.70;;;2.80;;
9597;SDS011;4837;50.890;4.724;2023-02-28T16:40:44;5.27;;;2.67;;
9597;SDS011;4837;50.890;4.724;2023-02-28T16:43:18;4.63;;;2.90;;
9597;SDS011;4837;50.890;4.724;2023-02-28T16:45:46;4.40;;;2.67;;
9597;SDS011;4837;50.890;4.724;2023-02-28T16:48:13;7.63;;;5.10;;
9597;SDS011;4837;50.890;4.724;2023-02-28T16:50:40;3.33;;;2.80;;
9597;SDS011;4837;50.890;4.724;2023-02-28T16:53:06;5.00;;;3.50;;
9597;SDS011;4837;50.890;4.724;2023-02-28T16:55:32;4.93;;;3.10;;
9597;SDS011;4837;50.890;4.724;2023-02-28T16:58:00;3.30;;;3.00;;
9597;SDS011;4837;50.890;4.724;2023-02-28T17:00:28;3.23;;;2.93;;
9597;SDS011;4837;50.890;4.724;2023-02-28T17:02:54;4.17;;;2.67;;
9597;SDS011;4837;50.890;4.724;2023-02-28T17:05:21;3.27;;;2.97;;
9597;SDS011;4837;50.890;4.724;2023-02-28T17:07:47;5.00;;;3.53;;
9597;SDS011;4837;50.890;4.724;2023-02-28T17:10:14;3.53;;;3.00;;
9597;SDS011;4837;50.890;4.724;2023-02-28T17:12:41;4.40;;;3.33;;
9597;SDS011;4837;50.890;4.724;2023-02-28T17:15:08;3.93;;;3.43;;
9597;SDS011;4837;50.890;4.724;2023-02-28T17:17:34;4.50;;;3.53;;
9597;SDS011;4837;50.890;4.724;2023-02-28T17:20:01;4.05;;;3.40;;
9597;SDS011;4837;50.890;4.724;2023-02-28T17:22:28;4.30;;;3.30;;
9597;SDS011;4837;50.890;4.724;2023-02-28T17:24:54;3.53;;;3.17;;
9597;SDS011;4837;50.890;4.724;2023-02-28T17:27:23;5.00;;;3.70;;
9597;SDS011;4837;50.890;4.724;2023-02-28T17:29:50;5.67;;;3.40;;
9597;SDS011;4837;50.890;4.724;2023-02-28T17:32:16;4.70;;;3.30;;
9597;SDS011;4837;50.890;4.724;2023-02-28T17:34:43;4.87;;;3.77;;
9597;SDS011;4837;50.890;4.724;2023-02-28T17:37:10;6.70;;;4.17;;
9597;SDS011;4837;50.890;4.724;2023-02-28T17:39:37;3.97;;;3.43;;
9597;SDS011;4837;50.890;4.724;2023-02-28T17:42:03;6.23;;;4.37;;
9597;SDS011;4837;50.890;4.724;2023-02-28T17:44:29;6.50;;;4.40;;
9597;SDS011;4837;50.890;4.724;2023-02-28T17:46:55;6.73;;;5.47;;
9597;SDS011;4837;50.890;4.724;2023-02-28T17:49:21;10.43;;;6.20;;
9597;SDS011;4837;50.890;4.724;2023-02-28T17:51:48;5.20;;;4.70;;